Pagrindinis puslapis
METAR-TAF:

METAR-TAF

Oro uostai :

Damamas, Saudo Arabija

platuma: 26-28N, ilguma: 049-47E, Aukštis: 22 m

Dabartinis oras

Ataskaita buvo paskelbta 9 minutes, ne 21:00 UTC
Vėjas 18 kt iš Šiaurės Vakarų
Temperatūra 37°C
Drėgmė 10%
Slėgis 1000 hPa
Matomumas: 0800 m
Dulkes pustymas

METAR: OEDF 172100Z 32018KT 0800 BLDU NSC 37/01 Q1000 BECMG 1000

Laikas: 00:09 (21:09 UTC)

Prognozė

Ataskaita buvo paskelbta 5 valandos ir 9 minutes, ne 16:00 UTC
Prognozė galioja nuo 17 metu 18 UTC su 18 metu 24 UTC
Vėjas 10 kt iš Vakarų/Šiaurės Vakarų
Matomumas: 5000 m
dulkės
Tapsmas
nuo 18 metu 04 UTC su 18 metu 06 UTC
Vėjas 12 kt iš Šiaurės/Šiaurės Vakarų su gūsio iki 22 kt
Laikinai
nuo 18 metu 06 UTC su 18 metu 16 UTC
Matomumas: 2000 m
Dulkes pustymas

TAF: OEDF 171600Z 1718/1824 30010KT 5000 DU NSC BECMG 1804/1806 34012G22KT TEMPO 1806/1816 2000 BLDU

Orai ataskaitas ir orų prognozės (METAR, TAF).

turimą stotys yra geltonos ir raudonos taškus žemėlapyje.

Perkelti pele per norėdami pamatyti stoties vardą.

Tada spustelėkite, norėdami matyti oro stebėjimo ir prognozės.

Norėdami pakeisti žemėlapį: spustelėkite ant žalios mygtukų su juodo kryžiaus žemyn,; žalią mygtuką su brūkšneliu, jei norite nutolinti; arba žalių rodyklių gretimoms žemėlapius.


METAR-TAF: